createdAt,value
2023-04-29T00:02:06.097Z,16.10
2023-04-29T00:04:32.544Z,16.12
2023-04-29T00:06:59.196Z,16.16
2023-04-29T00:09:25.570Z,16.24
2023-04-29T00:11:51.908Z,16.25
2023-04-29T00:14:18.257Z,16.32
2023-04-29T00:16:44.606Z,16.12
2023-04-29T00:19:11.305Z,16.16
2023-04-29T00:21:37.610Z,16.18
2023-04-29T00:24:04.015Z,16.19
2023-04-29T00:26:30.321Z,16.17
2023-04-29T00:28:56.650Z,16.16
2023-04-29T00:31:23.626Z,16.11
2023-04-29T00:33:49.958Z,16.01
2023-04-29T00:36:16.562Z,16.00
2023-04-29T00:38:43.133Z,16.05
2023-04-29T00:41:09.416Z,16.10
2023-04-29T00:43:35.724Z,16.09
2023-04-29T00:46:02.061Z,16.06
2023-04-29T00:48:28.397Z,16.04
2023-04-29T00:50:54.703Z,16.07
2023-04-29T00:53:22.660Z,16.13
2023-04-29T00:55:50.806Z,16.14
2023-04-29T00:58:17.994Z,16.19
2023-04-29T01:00:44.342Z,16.18
2023-04-29T01:03:10.820Z,16.10
2023-04-29T01:05:37.215Z,16.08
2023-04-29T01:08:12.644Z,16.07
2023-04-29T01:10:43.500Z,16.05
2023-04-29T01:13:12.310Z,15.91
2023-04-29T01:15:38.684Z,15.93
2023-04-29T01:18:10.577Z,15.89
2023-04-29T01:20:37.890Z,15.70
2023-04-29T01:23:04.193Z,15.63
2023-04-29T01:25:30.502Z,15.67
2023-04-29T01:28:05.568Z,15.73
2023-04-29T01:30:47.077Z,15.52
2023-04-29T01:33:13.504Z,15.47
2023-04-29T01:35:39.949Z,15.25
2023-04-29T01:38:06.195Z,15.22
2023-04-29T01:40:41.714Z,15.25
2023-04-29T01:43:11.608Z,15.46
2023-04-29T01:45:41.143Z,15.52
2023-04-29T01:48:08.157Z,15.47
2023-04-29T01:50:34.473Z,15.34
2023-04-29T01:53:00.795Z,15.38
2023-04-29T01:55:27.748Z,15.53
2023-04-29T01:57:54.042Z,15.54
2023-04-29T02:00:20.647Z,15.64
2023-04-29T02:02:47.031Z,15.80
2023-04-29T02:05:13.343Z,15.75
2023-04-29T02:07:39.921Z,15.80
2023-04-29T02:10:06.470Z,15.80
2023-04-29T02:12:32.799Z,15.59
2023-04-29T02:15:00.237Z,15.47
2023-04-29T02:17:26.556Z,15.58
2023-04-29T02:19:54.956Z,15.68
2023-04-29T02:22:21.386Z,15.68
2023-04-29T02:24:47.852Z,15.51
2023-04-29T02:27:14.160Z,15.40
2023-04-29T02:29:40.443Z,15.48
2023-04-29T02:32:06.942Z,15.42
2023-04-29T02:34:33.530Z,15.38
2023-04-29T02:37:00.019Z,15.37
2023-04-29T02:39:26.369Z,15.47
2023-04-29T02:41:54.105Z,15.59
2023-04-29T02:44:20.476Z,15.66
2023-04-29T02:46:46.775Z,15.67
2023-04-29T02:49:13.842Z,15.72
2023-04-29T02:51:41.271Z,15.74
2023-04-29T02:54:07.626Z,15.68
2023-04-29T02:56:33.895Z,15.55
2023-04-29T02:59:00.247Z,15.36
2023-04-29T03:01:27.205Z,15.31
2023-04-29T03:03:54.737Z,15.43
2023-04-29T03:06:21.304Z,15.50
2023-04-29T03:08:47.586Z,15.60
2023-04-29T03:11:13.909Z,15.68
2023-04-29T03:13:40.205Z,15.73
2023-04-29T03:16:06.769Z,15.72
2023-04-29T03:18:33.080Z,15.68
2023-04-29T03:20:59.803Z,15.72
2023-04-29T03:23:26.786Z,15.67
2023-04-29T03:25:53.189Z,15.57
2023-04-29T03:28:19.524Z,15.57
2023-04-29T03:30:45.807Z,15.45
2023-04-29T03:33:12.101Z,15.39
2023-04-29T03:35:38.364Z,15.44
2023-04-29T03:38:04.676Z,15.40
2023-04-29T03:40:30.991Z,15.41
2023-04-29T03:42:57.327Z,15.37
2023-04-29T03:45:23.631Z,15.28
2023-04-29T03:47:50.004Z,15.28
2023-04-29T03:50:16.406Z,15.36
2023-04-29T03:52:42.738Z,15.41
2023-04-29T03:55:09.342Z,15.41
2023-04-29T03:57:35.689Z,15.46
2023-04-29T04:00:01.977Z,15.49
2023-04-29T04:02:28.527Z,15.49
2023-04-29T04:04:55.314Z,15.51
2023-04-29T04:07:21.760Z,15.59
2023-04-29T04:09:48.075Z,15.65
2023-04-29T04:12:14.630Z,15.73
2023-04-29T04:14:40.906Z,15.73
2023-04-29T04:17:07.506Z,15.58
2023-04-29T04:19:33.834Z,15.47
2023-04-29T04:22:00.279Z,15.47
2023-04-29T04:24:26.578Z,15.55
2023-04-29T04:26:52.875Z,15.62
2023-04-29T04:29:19.195Z,15.57
2023-04-29T04:31:47.030Z,15.55
2023-04-29T04:34:13.665Z,15.52
2023-04-29T04:36:40.046Z,15.55
2023-04-29T04:39:06.348Z,15.60
2023-04-29T04:41:32.718Z,15.61
2023-04-29T04:43:59.201Z,15.56
2023-04-29T04:46:25.564Z,15.51
2023-04-29T04:48:51.855Z,15.51
2023-04-29T04:51:18.129Z,15.37
2023-04-29T04:53:44.449Z,15.23
2023-04-29T04:56:10.776Z,15.15
2023-04-29T04:58:37.091Z,15.18
2023-04-29T05:01:03.488Z,14.99
2023-04-29T05:03:29.948Z,14.87
2023-04-29T05:05:57.129Z,14.84
2023-04-29T05:08:23.459Z,14.92
2023-04-29T05:10:49.904Z,15.00
2023-04-29T05:13:16.335Z,15.08
2023-04-29T05:15:43.034Z,15.17
2023-04-29T05:18:09.326Z,15.25
2023-04-29T05:20:35.636Z,15.32
2023-04-29T05:23:02.134Z,15.35
2023-04-29T05:25:28.464Z,15.38
2023-04-29T05:27:54.904Z,15.27
2023-04-29T05:30:21.480Z,15.27
2023-04-29T05:32:48.737Z,15.24
2023-04-29T05:35:15.513Z,15.13
2023-04-29T05:37:41.809Z,15.08
2023-04-29T05:40:08.371Z,15.03
2023-04-29T05:42:34.683Z,14.95
2023-04-29T05:45:00.962Z,14.81
2023-04-29T05:47:27.280Z,14.61
2023-04-29T05:49:53.804Z,14.60
2023-04-29T05:52:20.939Z,14.75
2023-04-29T05:54:47.223Z,14.80
2023-04-29T05:57:13.507Z,14.77
2023-04-29T05:59:39.795Z,14.93
2023-04-29T06:02:06.483Z,15.06
2023-04-29T06:04:33.123Z,15.19
2023-04-29T06:06:59.666Z,15.24
2023-04-29T06:09:28.005Z,15.25
2023-04-29T06:11:54.747Z,15.18
2023-04-29T06:14:21.209Z,14.81
2023-04-29T06:16:49.007Z,14.83
2023-04-29T06:19:15.294Z,14.92
2023-04-29T06:21:41.643Z,15.04
2023-04-29T06:24:07.942Z,15.17
2023-04-29T06:26:34.231Z,15.18
2023-04-29T06:29:00.524Z,15.21
2023-04-29T06:31:27.710Z,15.29
2023-04-29T06:33:56.321Z,15.22
2023-04-29T06:36:22.600Z,15.27
2023-04-29T06:38:48.914Z,15.28
2023-04-29T06:41:15.205Z,15.32
2023-04-29T06:43:43.245Z,15.31
2023-04-29T06:46:09.877Z,15.39
2023-04-29T06:48:36.284Z,15.42
2023-04-29T06:51:02.619Z,15.40
2023-04-29T06:53:28.988Z,15.25
2023-04-29T06:55:55.268Z,15.20
2023-04-29T06:58:21.599Z,15.15
2023-04-29T07:00:48.361Z,15.29
2023-04-29T07:03:14.844Z,15.27
2023-04-29T07:05:42.062Z,15.28
2023-04-29T07:08:08.572Z,15.40
2023-04-29T07:10:34.872Z,15.48
2023-04-29T07:13:01.160Z,15.49
2023-04-29T07:15:27.770Z,15.41
2023-04-29T07:17:54.190Z,15.36
2023-04-29T07:20:22.386Z,15.39
2023-04-29T07:22:48.906Z,15.37
2023-04-29T07:25:15.312Z,15.39
2023-04-29T07:27:42.040Z,15.47
2023-04-29T07:30:08.810Z,15.58
2023-04-29T07:32:35.208Z,15.67
2023-04-29T07:35:01.577Z,15.74
2023-04-29T07:37:27.927Z,15.65
2023-04-29T07:39:54.413Z,15.48
2023-04-29T07:42:20.938Z,15.44
2023-04-29T07:44:47.211Z,15.35
2023-04-29T07:47:13.477Z,15.34
2023-04-29T07:49:39.796Z,15.34
2023-04-29T07:52:06.144Z,15.41
2023-04-29T07:54:32.477Z,15.37
2023-04-29T07:56:58.792Z,15.33
2023-04-29T07:59:25.078Z,15.39
2023-04-29T08:01:52.279Z,15.45
2023-04-29T08:04:19.264Z,15.48
2023-04-29T08:06:45.741Z,15.37
2023-04-29T08:09:12.136Z,15.45
2023-04-29T08:11:39.915Z,15.45
2023-04-29T08:14:06.428Z,15.46
2023-04-29T08:16:32.773Z,15.56
2023-04-29T08:18:59.142Z,15.63
2023-04-29T08:21:25.449Z,15.77
2023-04-29T08:23:53.305Z,15.90
2023-04-29T08:26:19.937Z,16.02
2023-04-29T08:28:46.375Z,16.06
2023-04-29T08:31:19.259Z,15.97
2023-04-29T08:33:45.587Z,15.98
2023-04-29T08:36:11.878Z,16.09
2023-04-29T08:38:38.311Z,16.05
2023-04-29T08:41:04.881Z,16.14
2023-04-29T08:43:31.247Z,16.20
2023-04-29T08:45:58.029Z,16.28
2023-04-29T08:48:24.444Z,16.33
2023-04-29T08:50:51.054Z,16.38
2023-04-29T08:53:17.615Z,16.30
2023-04-29T08:55:44.838Z,16.32
2023-04-29T08:58:12.001Z,16.33
2023-04-29T09:00:38.877Z,16.34
2023-04-29T09:03:13.980Z,16.34
2023-04-29T09:05:41.857Z,16.19
2023-04-29T09:08:08.246Z,16.05
2023-04-29T09:10:37.565Z,16.13
2023-04-29T09:13:03.868Z,16.31
2023-04-29T09:15:30.206Z,16.48
2023-04-29T09:17:57.121Z,16.47
2023-04-29T09:20:23.438Z,16.34
2023-04-29T09:22:53.643Z,16.17
2023-04-29T09:25:20.688Z,16.24
2023-04-29T09:27:46.995Z,16.39
2023-04-29T09:30:13.834Z,16.52
2023-04-29T09:32:40.985Z,16.58
2023-04-29T09:35:23.296Z,16.43
2023-04-29T09:37:49.585Z,16.28
2023-04-29T09:40:31.551Z,16.22
2023-04-29T09:42:58.264Z,16.33
2023-04-29T09:45:38.543Z,16.49
2023-04-29T09:48:06.822Z,16.36
2023-04-29T09:50:33.196Z,16.26
2023-04-29T09:52:59.967Z,16.22
2023-04-29T09:55:29.488Z,16.22
2023-04-29T09:57:56.092Z,16.24
2023-04-29T10:00:22.854Z,16.32
2023-04-29T10:02:49.835Z,16.49
2023-04-29T10:05:16.511Z,16.67
2023-04-29T10:07:42.820Z,16.78
2023-04-29T10:10:10.674Z,16.68
2023-04-29T10:12:38.359Z,16.47
2023-04-29T10:15:07.403Z,16.42
2023-04-29T10:17:37.567Z,16.49
2023-04-29T10:20:07.427Z,16.67
2023-04-29T10:22:34.505Z,16.84
2023-04-29T10:25:01.151Z,16.99
2023-04-29T10:27:28.872Z,17.12
2023-04-29T10:29:55.299Z,17.04
2023-04-29T10:32:21.646Z,16.90
2023-04-29T10:34:48.777Z,16.91
2023-04-29T10:37:16.783Z,16.76
2023-04-29T10:39:50.944Z,16.98
2023-04-29T10:42:21.028Z,17.19
2023-04-29T10:45:06.183Z,17.40
2023-04-29T10:47:32.496Z,17.50
2023-04-29T10:50:03.583Z,17.56
2023-04-29T10:52:30.041Z,17.70
2023-04-29T10:55:03.808Z,17.79
2023-04-29T10:57:30.228Z,17.91
2023-04-29T10:59:56.845Z,17.95
2023-04-29T11:02:23.421Z,17.98
2023-04-29T11:05:09.147Z,17.95
2023-04-29T11:07:36.123Z,17.85
2023-04-29T11:10:02.616Z,17.45
2023-04-29T11:12:28.947Z,17.05
2023-04-29T11:15:01.793Z,16.78
2023-04-29T11:17:28.468Z,16.66
2023-04-29T11:19:56.021Z,16.90
2023-04-29T11:22:22.603Z,16.81
2023-04-29T11:24:49.449Z,16.74
2023-04-29T11:27:15.825Z,16.85
2023-04-29T11:29:42.139Z,17.00
2023-04-29T11:32:08.576Z,16.69
2023-04-29T11:34:35.005Z,16.39
2023-04-29T11:37:01.314Z,16.64
2023-04-29T11:39:27.842Z,16.58
2023-04-29T11:42:06.736Z,16.73
2023-04-29T11:44:36.202Z,16.93
2023-04-29T11:47:03.307Z,16.95
2023-04-29T11:49:32.741Z,16.96
2023-04-29T11:51:59.027Z,17.04
2023-04-29T11:54:25.984Z,17.00
2023-04-29T11:56:53.429Z,17.08
2023-04-29T11:59:19.736Z,17.19
2023-04-29T12:01:46.320Z,17.30
2023-04-29T12:04:12.798Z,17.45
2023-04-29T12:06:39.336Z,17.50
2023-04-29T12:09:05.859Z,17.44
2023-04-29T12:11:32.189Z,17.44
2023-04-29T12:13:58.568Z,17.56
2023-04-29T12:16:25.639Z,17.57
2023-04-29T12:18:52.627Z,17.65
2023-04-29T12:21:18.930Z,17.63
2023-04-29T12:23:45.747Z,17.67
2023-04-29T12:26:13.107Z,17.62
2023-04-29T12:28:41.352Z,17.67
2023-04-29T12:31:08.879Z,17.63
2023-04-29T12:33:35.251Z,17.62
2023-04-29T12:36:01.969Z,17.63
2023-04-29T12:38:29.618Z,17.66
2023-04-29T12:40:56.431Z,17.51
2023-04-29T12:43:26.298Z,17.38
2023-04-29T12:45:53.958Z,17.30
2023-04-29T12:48:26.743Z,17.33
2023-04-29T12:50:58.352Z,17.30
2023-04-29T12:53:24.901Z,17.45
2023-04-29T12:55:52.006Z,17.38
2023-04-29T12:58:18.302Z,17.38
2023-04-29T13:00:44.597Z,17.39
2023-04-29T13:03:11.108Z,17.50
2023-04-29T13:05:37.630Z,17.64
2023-04-29T13:08:06.566Z,17.81
2023-04-29T13:10:33.044Z,17.93
2023-04-29T13:12:59.409Z,17.94
2023-04-29T13:15:25.912Z,17.88
2023-04-29T13:17:52.323Z,17.80
2023-04-29T13:20:18.708Z,17.76
2023-04-29T13:22:45.029Z,17.67
2023-04-29T13:25:12.482Z,17.75
2023-04-29T13:27:38.933Z,17.75
2023-04-29T13:30:05.935Z,17.58
2023-04-29T13:32:43.752Z,17.57
2023-04-29T13:35:11.920Z,17.59
2023-04-29T13:37:38.257Z,17.61
2023-04-29T13:40:07.241Z,17.50
2023-04-29T13:42:39.552Z,17.31
2023-04-29T13:45:16.296Z,17.25
2023-04-29T13:48:03.647Z,17.08
2023-04-29T13:56:23.505Z,17.03
2023-04-29T13:58:56.241Z,17.19
2023-04-29T14:01:17.636Z,17.36
2023-04-29T14:03:49.050Z,17.50
2023-04-29T14:06:15.858Z,17.64
2023-04-29T14:08:42.139Z,17.74
2023-04-29T14:11:08.468Z,17.79
2023-04-29T14:13:34.750Z,17.86
2023-04-29T14:16:03.692Z,17.86
2023-04-29T14:18:30.564Z,17.85
2023-04-29T14:20:57.875Z,17.68
2023-04-29T14:23:24.190Z,17.52
2023-04-29T14:25:50.462Z,17.46
2023-04-29T14:28:16.772Z,17.58
2023-04-29T14:30:46.225Z,17.73
2023-04-29T14:33:13.231Z,17.71
2023-04-29T14:35:39.505Z,17.68
2023-04-29T14:38:05.885Z,17.80
2023-04-29T14:40:32.227Z,17.78
2023-04-29T14:42:58.508Z,17.79
2023-04-29T14:45:24.880Z,17.83
2023-04-29T14:47:51.160Z,17.90
2023-04-29T14:50:18.231Z,18.06
2023-04-29T14:52:44.720Z,18.19
2023-04-29T14:55:11.189Z,18.32
2023-04-29T14:57:37.610Z,18.39
2023-04-29T15:00:04.512Z,18.48
2023-04-29T15:02:30.879Z,18.50
2023-04-29T15:04:57.385Z,18.56
2023-04-29T15:07:23.677Z,18.54
2023-04-29T15:09:50.711Z,18.49
2023-04-29T15:12:17.966Z,18.53
2023-04-29T15:14:44.328Z,18.52
2023-04-29T15:17:10.603Z,18.50
2023-04-29T15:19:37.224Z,18.48
2023-04-29T15:22:03.917Z,18.42
2023-04-29T15:24:30.266Z,18.29
2023-04-29T15:26:56.554Z,18.16
2023-04-29T15:29:23.231Z,17.88
2023-04-29T15:31:49.646Z,17.75
2023-04-29T15:34:16.011Z,17.80
2023-04-29T15:36:42.469Z,17.78
2023-04-29T15:39:10.897Z,17.90
2023-04-29T15:41:37.409Z,18.01
2023-04-29T15:44:03.734Z,18.11
2023-04-29T15:46:30.432Z,18.18
2023-04-29T15:48:57.091Z,18.23
2023-04-29T15:51:23.576Z,18.10
2023-04-29T15:53:50.905Z,17.91
2023-04-29T15:56:17.432Z,17.93
2023-04-29T15:58:43.729Z,18.00
2023-04-29T16:01:10.105Z,18.14
2023-04-29T16:03:36.449Z,18.26
2023-04-29T16:06:02.907Z,18.32
2023-04-29T16:08:29.210Z,18.29
2023-04-29T16:10:55.536Z,18.26
2023-04-29T16:13:21.856Z,18.36
2023-04-29T16:15:48.140Z,18.33
2023-04-29T16:18:14.751Z,18.31
2023-04-29T16:20:42.034Z,18.43
2023-04-29T16:23:08.474Z,18.36
2023-04-29T16:25:34.775Z,18.32
2023-04-29T16:28:01.238Z,18.34
2023-04-29T16:30:28.053Z,18.40
2023-04-29T16:32:54.584Z,18.42
2023-04-29T16:35:25.732Z,18.41
2023-04-29T16:37:53.136Z,18.34
2023-04-29T16:40:19.419Z,18.02
2023-04-29T16:42:45.711Z,17.75
2023-04-29T16:45:13.265Z,17.58
2023-04-29T16:47:42.614Z,17.62
2023-04-29T16:50:09.354Z,17.72
2023-04-29T16:52:35.700Z,17.84
2023-04-29T16:55:03.545Z,17.95
2023-04-29T16:57:30.152Z,18.03
2023-04-29T16:59:56.625Z,18.12
2023-04-29T17:02:23.071Z,18.16
2023-04-29T17:04:49.587Z,18.22
2023-04-29T17:07:19.272Z,18.25
2023-04-29T17:09:47.416Z,18.26
2023-04-29T17:12:13.708Z,18.26
2023-04-29T17:14:40.536Z,18.18
2023-04-29T17:17:06.919Z,18.09
2023-04-29T17:19:33.262Z,18.03
2023-04-29T17:21:59.565Z,18.08
2023-04-29T17:24:25.866Z,18.14
2023-04-29T17:26:52.167Z,18.00
2023-04-29T17:29:18.457Z,17.84
2023-04-29T17:31:45.269Z,17.85
2023-04-29T17:34:18.541Z,17.97
2023-04-29T17:36:47.863Z,18.06
2023-04-29T17:39:14.286Z,18.11
2023-04-29T17:41:40.584Z,18.16
2023-04-29T17:44:07.957Z,18.18
2023-04-29T17:46:37.347Z,18.18
2023-04-29T17:49:03.875Z,18.16
2023-04-29T17:51:32.876Z,18.15
2023-04-29T17:53:59.987Z,18.06
2023-04-29T17:56:27.120Z,18.00
2023-04-29T17:58:53.639Z,17.91
2023-04-29T18:01:19.949Z,17.85
2023-04-29T18:03:47.135Z,17.80
2023-04-29T18:06:13.507Z,17.79
2023-04-29T18:08:39.919Z,17.76
2023-04-29T18:11:07.603Z,17.72
2023-04-29T18:13:33.934Z,17.65
2023-04-29T18:16:00.227Z,17.64
2023-04-29T18:18:26.912Z,17.63
2023-04-29T18:20:53.295Z,17.54
2023-04-29T18:23:19.588Z,17.48
2023-04-29T18:25:45.873Z,17.41
2023-04-29T18:28:23.565Z,17.34
2023-04-29T18:30:51.732Z,17.34
2023-04-29T18:33:18.051Z,17.31
2023-04-29T18:35:44.345Z,17.27
2023-04-29T18:38:14.043Z,17.18
2023-04-29T18:40:40.698Z,17.15
2023-04-29T18:43:07.112Z,17.08
2023-04-29T18:45:33.396Z,16.96
2023-04-29T18:48:03.768Z,16.87
2023-04-29T18:50:30.109Z,16.77
2023-04-29T18:52:56.420Z,16.66
2023-04-29T18:55:23.044Z,16.57
2023-04-29T18:57:49.345Z,16.55
2023-04-29T19:00:16.431Z,16.66
2023-04-29T19:02:42.773Z,16.69
2023-04-29T19:05:12.629Z,16.69
2023-04-29T19:07:39.003Z,16.74
2023-04-29T19:10:06.134Z,16.86
2023-04-29T19:12:32.463Z,16.92
2023-04-29T19:14:58.940Z,16.94
2023-04-29T19:17:25.282Z,16.94
2023-04-29T19:19:51.792Z,16.96
2023-04-29T19:22:18.412Z,16.98
2023-04-29T19:24:44.715Z,16.98
2023-04-29T19:27:11.979Z,16.98
2023-04-29T19:29:38.645Z,17.01
2023-04-29T19:32:04.960Z,17.01
2023-04-29T19:34:31.483Z,17.06
2023-04-29T19:36:57.774Z,17.03
2023-04-29T19:39:24.070Z,17.01
2023-04-29T19:41:50.448Z,16.97
2023-04-29T19:44:16.765Z,16.97
2023-04-29T19:46:43.117Z,16.95
2023-04-29T19:49:09.492Z,16.90
2023-04-29T19:51:35.991Z,16.94
2023-04-29T19:54:02.284Z,17.00
2023-04-29T19:56:28.747Z,17.02
2023-04-29T19:58:55.059Z,16.90
2023-04-29T20:01:21.422Z,16.79
2023-04-29T20:03:47.968Z,16.57
2023-04-29T20:06:15.780Z,16.41
2023-04-29T20:08:42.225Z,16.16
2023-04-29T20:11:08.563Z,16.30
2023-04-29T20:13:34.867Z,16.41
2023-04-29T20:16:01.235Z,16.53
2023-04-29T20:18:27.579Z,16.60
2023-04-29T20:20:53.939Z,16.65
2023-04-29T20:23:20.234Z,16.54
2023-04-29T20:25:46.546Z,16.44
2023-04-29T20:28:12.822Z,16.19
2023-04-29T20:30:39.116Z,16.22
2023-04-29T20:33:06.991Z,16.40
2023-04-29T20:35:34.921Z,16.47
2023-04-29T20:38:01.359Z,16.50
2023-04-29T20:40:27.734Z,16.51
2023-04-29T20:42:54.039Z,16.40
2023-04-29T20:45:20.351Z,16.23
2023-04-29T20:47:46.843Z,16.29
2023-04-29T20:50:13.307Z,16.39
2023-04-29T20:52:40.252Z,16.34
2023-04-29T20:55:06.540Z,16.27
2023-04-29T20:57:32.899Z,16.09
2023-04-29T20:59:59.236Z,15.94
2023-04-29T21:02:25.586Z,15.76
2023-04-29T21:04:51.950Z,15.68
2023-04-29T21:07:18.320Z,15.76
2023-04-29T21:09:44.662Z,15.71
2023-04-29T21:12:10.977Z,15.65
2023-04-29T21:14:37.512Z,15.68
2023-04-29T21:17:03.966Z,15.79
2023-04-29T21:19:30.620Z,15.88
2023-04-29T21:21:56.958Z,15.88
2023-04-29T21:24:23.422Z,15.93
2023-04-29T21:26:50.383Z,15.99
2023-04-29T21:29:16.708Z,15.95
2023-04-29T21:31:43.068Z,15.88
2023-04-29T21:34:09.415Z,15.85
2023-04-29T21:36:35.788Z,15.88
2023-04-29T21:39:02.172Z,15.86
2023-04-29T21:41:29.170Z,15.79
2023-04-29T21:43:56.836Z,15.65
2023-04-29T21:46:23.163Z,15.40
2023-04-29T21:48:49.533Z,15.38
2023-04-29T21:51:15.932Z,15.44
2023-04-29T21:53:42.681Z,15.46
2023-04-29T21:56:08.966Z,15.34
2023-04-29T21:58:35.621Z,15.25
2023-04-29T22:01:03.431Z,15.16
2023-04-29T22:03:30.349Z,15.17
2023-04-29T22:05:56.819Z,15.17
2023-04-29T22:08:23.203Z,15.23
2023-04-29T22:10:49.589Z,15.29
2023-04-29T22:13:16.179Z,15.24
2023-04-29T22:15:42.456Z,15.27
2023-04-29T22:18:08.790Z,15.39
2023-04-29T22:20:35.158Z,15.43
2023-04-29T22:23:01.492Z,15.48
2023-04-29T22:25:27.770Z,15.48
2023-04-29T22:27:54.063Z,15.46
2023-04-29T22:30:20.799Z,15.40
2023-04-29T22:32:47.280Z,15.46
2023-04-29T22:35:13.596Z,15.50
2023-04-29T22:37:39.915Z,15.43
2023-04-29T22:40:06.464Z,15.45
2023-04-29T22:42:32.780Z,15.40
2023-04-29T22:44:59.088Z,15.40
2023-04-29T22:47:26.116Z,15.42
2023-04-29T22:49:52.680Z,15.39
2023-04-29T22:52:19.096Z,15.42
2023-04-29T22:54:45.401Z,15.48
2023-04-29T22:57:11.790Z,15.48
2023-04-29T22:59:38.095Z,15.55
2023-04-29T23:02:04.422Z,15.59
2023-04-29T23:04:32.347Z,15.64
2023-04-29T23:06:58.697Z,15.62
2023-04-29T23:09:25.076Z,15.60
2023-04-29T23:11:51.382Z,15.68
2023-04-29T23:14:17.911Z,15.74
2023-04-29T23:16:44.195Z,15.61
2023-04-29T23:19:10.472Z,15.54
2023-04-29T23:21:36.756Z,15.44
2023-04-29T23:24:03.155Z,15.55
2023-04-29T23:26:29.453Z,15.64
2023-04-29T23:28:55.736Z,15.76
2023-04-29T23:31:22.063Z,15.81
2023-04-29T23:33:48.839Z,15.88
2023-04-29T23:36:15.418Z,15.89
2023-04-29T23:38:41.885Z,15.91
2023-04-29T23:41:08.180Z,15.92
2023-04-29T23:43:34.552Z,15.93
2023-04-29T23:46:00.997Z,15.95
2023-04-29T23:48:27.327Z,15.83
2023-04-29T23:50:53.601Z,15.77
2023-04-29T23:53:19.906Z,15.79
2023-04-29T23:55:46.234Z,15.79
2023-04-29T23:58:12.618Z,15.67
